createdAt,value
2023-01-20T00:01:26.036Z,3.13
2023-01-20T00:03:54.849Z,3.19
2023-01-20T00:06:23.323Z,3.27
2023-01-20T00:08:55.701Z,3.33
2023-01-20T00:11:23.697Z,3.38
2023-01-20T00:13:56.292Z,3.46
2023-01-20T00:16:24.804Z,3.52
2023-01-20T00:18:52.672Z,3.60
2023-01-20T00:21:20.574Z,3.69
2023-01-20T00:23:48.451Z,3.77
2023-01-20T00:26:18.083Z,3.82
2023-01-20T00:28:46.357Z,3.88
2023-01-20T00:31:22.485Z,3.93
2023-01-20T00:33:51.057Z,3.99
2023-01-20T00:36:19.941Z,4.05
2023-01-20T00:38:47.999Z,4.09
2023-01-20T00:41:15.990Z,4.13
2023-01-20T00:43:44.269Z,4.17
2023-01-20T00:46:12.280Z,4.19
2023-01-20T00:48:40.123Z,4.21
2023-01-20T00:51:08.535Z,4.32
2023-01-20T00:53:36.540Z,4.38
2023-01-20T00:56:04.604Z,4.43
2023-01-20T00:58:32.786Z,4.45
2023-01-20T01:01:00.584Z,4.49
2023-01-20T01:03:28.808Z,4.53
2023-01-20T01:06:09.374Z,4.53
2023-01-20T01:08:37.483Z,4.54
2023-01-20T01:11:05.589Z,4.56
2023-01-20T01:13:33.443Z,4.52
2023-01-20T01:16:01.723Z,4.50
2023-01-20T01:18:29.786Z,4.47
2023-01-20T01:20:57.577Z,4.45
2023-01-20T01:23:25.800Z,4.41
2023-01-20T01:25:53.560Z,4.36
2023-01-20T01:28:21.369Z,4.32
2023-01-20T01:30:49.238Z,4.28
2023-01-20T01:33:17.008Z,4.24
2023-01-20T01:35:44.871Z,4.18
2023-01-20T01:38:12.679Z,4.12
2023-01-20T01:40:40.535Z,4.03
2023-01-20T01:43:19.500Z,3.94
2023-01-20T01:45:47.590Z,3.87
2023-01-20T01:48:15.366Z,3.79
2023-01-20T01:50:46.457Z,3.72
2023-01-20T01:53:14.594Z,3.62
2023-01-20T01:55:47.104Z,3.54
2023-01-20T01:58:16.566Z,3.45
2023-01-20T02:00:44.712Z,3.37
2023-01-20T02:03:12.579Z,3.31
2023-01-20T02:09:51.204Z,3.17
2023-01-20T02:12:20.111Z,3.10
2023-01-20T02:14:55.451Z,3.01
2023-01-20T02:17:27.034Z,2.92
2023-01-20T02:20:25.791Z,2.83
2023-01-20T02:23:09.221Z,2.71
2023-01-20T02:26:15.790Z,2.59
2023-01-20T02:29:02.509Z,2.53
2023-01-20T02:31:49.215Z,2.44
2023-01-20T02:34:35.789Z,2.33
2023-01-20T02:37:10.918Z,2.20
2023-01-20T02:40:04.431Z,2.08
2023-01-20T02:42:52.328Z,1.99
2023-01-20T02:45:24.511Z,1.92
2023-01-20T02:47:57.591Z,1.87
2023-01-20T02:50:46.305Z,1.81
2023-01-20T02:53:14.208Z,1.73
2023-01-20T02:55:45.121Z,1.69
2023-01-20T02:58:39.334Z,1.66
2023-01-20T03:01:27.026Z,1.64
2023-01-20T03:03:55.657Z,1.57
2023-01-20T03:06:25.296Z,1.54
2023-01-20T03:08:53.697Z,1.50
2023-01-20T03:11:21.697Z,1.47
2023-01-20T03:14:07.185Z,1.44
2023-01-20T03:16:35.228Z,1.40
2023-01-20T03:19:03.338Z,1.36
2023-01-20T03:21:32.121Z,1.32
2023-01-20T03:24:04.712Z,1.30
2023-01-20T03:26:32.639Z,1.26
2023-01-20T03:29:05.853Z,1.25
2023-01-20T03:31:37.274Z,1.20
2023-01-20T03:34:11.592Z,1.17
2023-01-20T03:36:39.852Z,1.15
2023-01-20T03:39:08.257Z,1.15
2023-01-20T03:41:57.324Z,1.14
2023-01-20T03:44:28.324Z,1.10
2023-01-20T03:47:02.751Z,1.07
2023-01-20T03:49:36.204Z,1.05
2023-01-20T03:52:11.760Z,1.03
2023-01-20T03:54:58.538Z,1.00
2023-01-20T03:57:29.919Z,0.97
2023-01-20T03:59:57.741Z,0.93
2023-01-20T04:02:25.613Z,0.91
2023-01-20T04:04:53.675Z,0.90
2023-01-20T04:07:24.577Z,0.88
2023-01-20T04:09:56.525Z,0.87
2023-01-20T04:12:25.901Z,0.81
2023-01-20T04:14:57.496Z,0.78
2023-01-20T04:17:29.605Z,0.77
2023-01-20T04:19:57.793Z,0.75
2023-01-20T04:22:39.136Z,0.73
2023-01-20T04:25:23.245Z,0.69
2023-01-20T04:27:51.353Z,0.62
2023-01-20T04:30:19.492Z,0.58
2023-01-20T04:32:47.911Z,0.57
2023-01-20T04:35:17.432Z,0.58
2023-01-20T04:37:45.561Z,0.59
2023-01-20T04:40:14.351Z,0.58
2023-01-20T04:42:42.469Z,0.60
2023-01-20T04:45:11.416Z,0.61
2023-01-20T04:47:39.286Z,0.60
2023-01-20T04:50:08.097Z,0.57
2023-01-20T04:52:36.328Z,0.56
2023-01-20T04:55:04.658Z,0.53
2023-01-20T04:57:33.065Z,0.50
2023-01-20T05:00:01.338Z,0.49
2023-01-20T05:02:29.360Z,0.47
2023-01-20T05:04:57.675Z,0.46
2023-01-20T05:07:25.836Z,0.45
2023-01-20T05:09:53.900Z,0.46
2023-01-20T05:12:22.551Z,0.46
2023-01-20T05:14:50.603Z,0.45
2023-01-20T05:17:18.480Z,0.45
2023-01-20T05:19:47.057Z,0.44
2023-01-20T05:22:15.031Z,0.47
2023-01-20T05:24:42.844Z,0.46
2023-01-20T05:27:10.702Z,0.44
2023-01-20T05:29:38.479Z,0.44
2023-01-20T05:32:12.318Z,0.38
2023-01-20T05:34:41.916Z,0.37
2023-01-20T05:37:09.547Z,0.39
2023-01-20T05:39:37.495Z,0.41
2023-01-20T05:42:06.203Z,0.41
2023-01-20T05:44:33.938Z,0.38
2023-01-20T05:47:02.229Z,0.38
2023-01-20T05:49:30.972Z,0.39
2023-01-20T05:52:01.412Z,0.40
2023-01-20T05:54:30.097Z,0.42
2023-01-20T05:57:00.871Z,0.44
2023-01-20T05:59:33.985Z,0.44
2023-01-20T06:02:05.636Z,0.44
2023-01-20T06:04:35.434Z,0.44
2023-01-20T06:07:03.660Z,0.47
2023-01-20T06:09:31.624Z,0.49
2023-01-20T06:11:59.642Z,0.50
2023-01-20T06:14:28.980Z,0.54
2023-01-20T06:16:57.015Z,0.59
2023-01-20T06:19:28.458Z,0.61
2023-01-20T06:21:57.009Z,0.62
2023-01-20T06:24:25.333Z,0.63
2023-01-20T06:26:55.222Z,0.66
2023-01-20T06:29:25.436Z,0.69
2023-01-20T06:31:58.107Z,0.83
2023-01-20T06:34:29.406Z,0.85
2023-01-20T06:36:58.859Z,0.87
2023-01-20T06:39:30.433Z,0.87
2023-01-20T06:42:02.337Z,0.87
2023-01-20T06:44:32.403Z,0.85
2023-01-20T06:47:01.544Z,0.91
2023-01-20T06:49:31.739Z,0.96
2023-01-20T06:52:01.979Z,1.01
2023-01-20T06:54:31.659Z,1.05
2023-01-20T06:57:03.955Z,1.11
2023-01-20T06:59:33.940Z,1.17
2023-01-20T07:02:02.552Z,1.22
2023-01-20T08:33:19.865Z,3.61
2023-01-20T08:35:48.544Z,3.64
2023-01-20T08:38:16.693Z,3.67
2023-01-20T08:40:45.027Z,3.78
2023-01-20T08:43:12.966Z,3.81
2023-01-20T08:45:44.222Z,3.87
2023-01-20T08:48:11.992Z,3.93
2023-01-20T08:50:39.927Z,3.97
2023-01-20T08:53:07.718Z,3.98
2023-01-20T08:55:35.665Z,3.99
2023-01-20T08:58:03.741Z,4.01
2023-01-20T09:00:31.937Z,4.02
2023-01-20T09:03:00.138Z,4.00
2023-01-20T09:05:28.153Z,4.00
2023-01-20T09:07:56.096Z,4.05
2023-01-20T09:10:24.517Z,4.07
2023-01-20T09:12:52.478Z,4.11
2023-01-20T09:15:21.267Z,4.18
2023-01-20T09:17:49.238Z,4.20
2023-01-20T09:20:17.574Z,4.25
2023-01-20T09:22:45.881Z,4.28
2023-01-20T09:25:13.921Z,4.35
2023-01-20T09:27:42.253Z,4.43
2023-01-20T09:30:10.716Z,4.54
2023-01-20T09:32:38.710Z,4.65
2023-01-20T09:35:07.531Z,4.70
2023-01-20T09:37:54.180Z,4.75
2023-01-20T09:40:43.125Z,4.78
2023-01-20T09:43:55.173Z,4.78
2023-01-20T09:46:39.747Z,4.88
2023-01-20T09:49:48.861Z,4.97
2023-01-20T09:52:55.426Z,5.00
2023-01-20T09:55:42.003Z,5.02
2023-01-20T09:58:33.338Z,5.01
2023-01-20T10:01:12.798Z,5.00
2023-01-20T10:03:52.668Z,5.02
2023-01-20T10:06:42.478Z,5.04
2023-01-20T10:09:22.029Z,5.05
2023-01-20T10:11:50.356Z,5.09
2023-01-20T10:14:29.455Z,5.11
2023-01-20T10:17:12.446Z,5.01
2023-01-20T10:20:03.635Z,4.98
2023-01-20T10:22:42.068Z,4.92
2023-01-20T10:25:37.992Z,4.85
2023-01-20T10:28:16.343Z,4.81
2023-01-20T10:30:47.035Z,4.80
2023-01-20T10:33:21.514Z,4.81
2023-01-20T10:35:52.500Z,4.80
2023-01-20T10:38:44.766Z,4.80
2023-01-20T10:41:44.869Z,4.83
2023-01-20T10:44:14.579Z,4.85
2023-01-20T10:46:59.689Z,4.90
2023-01-20T10:49:57.049Z,4.93
2023-01-20T10:52:53.265Z,4.97
2023-01-20T10:55:43.735Z,4.92
2023-01-20T10:58:25.062Z,4.88
2023-01-20T11:00:54.228Z,4.88
2023-01-20T11:03:23.756Z,4.90
2023-01-20T11:05:53.003Z,4.93
2023-01-20T11:08:28.852Z,4.95
2023-01-20T11:11:02.187Z,4.96
2023-01-20T11:13:30.904Z,4.91
2023-01-20T11:16:01.738Z,4.87
2023-01-20T11:18:31.343Z,4.84
2023-01-20T11:21:08.104Z,4.83
2023-01-20T11:23:38.992Z,4.82
2023-01-20T11:26:22.418Z,4.81
2023-01-20T11:28:57.465Z,4.78
2023-01-20T11:31:42.155Z,4.79
2023-01-20T11:34:39.688Z,4.78
2023-01-20T11:37:11.164Z,4.78
2023-01-20T11:39:56.532Z,4.79
2023-01-20T11:42:25.466Z,4.72
2023-01-20T11:44:53.255Z,4.67
2023-01-20T11:47:27.299Z,4.66
2023-01-20T11:50:08.280Z,4.69
2023-01-20T11:52:37.247Z,4.73
2023-01-20T11:55:15.255Z,4.75
2023-01-20T11:57:53.075Z,4.77
2023-01-20T12:00:21.228Z,4.79
2023-01-20T12:03:04.673Z,4.75
2023-01-20T12:05:41.109Z,4.69
2023-01-20T12:08:13.841Z,4.64
2023-01-20T12:10:41.895Z,4.56
2023-01-20T12:13:20.775Z,4.51
2023-01-20T12:15:55.626Z,4.47
2023-01-20T12:19:01.790Z,4.45
2023-01-20T12:21:35.056Z,4.39
2023-01-20T12:24:30.146Z,4.36
2023-01-20T12:27:04.048Z,4.32
2023-01-20T12:29:45.305Z,4.29
2023-01-20T12:32:14.039Z,4.28
2023-01-20T12:34:42.546Z,4.28
2023-01-20T12:37:26.179Z,4.27
2023-01-20T12:40:16.645Z,4.22
2023-01-20T12:43:19.679Z,4.19
2023-01-20T12:46:00.203Z,4.16
2023-01-20T12:49:04.084Z,4.12
2023-01-20T12:51:32.675Z,4.11
2023-01-20T12:54:48.034Z,4.07
2023-01-20T12:57:45.591Z,4.02
2023-01-20T13:00:47.491Z,4.05
2023-01-20T13:03:50.049Z,4.08
2023-01-20T13:06:55.607Z,4.09
2023-01-20T13:09:26.783Z,4.11
2023-01-20T13:12:07.213Z,4.10
2023-01-20T13:15:15.534Z,4.01
2023-01-20T13:17:48.280Z,3.92
2023-01-20T13:20:19.577Z,3.87
2023-01-20T13:22:47.588Z,3.78
2023-01-20T13:25:17.660Z,3.69
2023-01-20T13:27:46.040Z,3.61
2023-01-20T13:30:43.805Z,3.51
2023-01-20T13:33:17.536Z,3.47
2023-01-20T13:35:47.353Z,3.34
2023-01-20T13:38:28.531Z,3.28
2023-01-20T13:41:03.819Z,3.23
2023-01-20T13:43:48.940Z,3.17
2023-01-20T13:46:37.699Z,3.12
2023-01-20T13:49:14.292Z,3.06
2023-01-20T13:51:46.827Z,3.01
2023-01-20T13:54:25.711Z,2.93
2023-01-20T13:56:53.599Z,2.89
2023-01-20T13:59:21.811Z,2.87
2023-01-20T14:01:50.191Z,2.84
2023-01-20T14:04:22.361Z,2.75
2023-01-20T14:06:52.106Z,2.73
2023-01-20T14:09:22.075Z,2.68
2023-01-20T14:11:51.806Z,2.63
2023-01-20T14:14:21.965Z,2.56
2023-01-20T14:16:50.398Z,2.52
2023-01-20T14:19:28.080Z,2.47
2023-01-20T14:21:58.223Z,2.42
2023-01-20T14:24:37.515Z,2.38
2023-01-20T14:27:23.264Z,2.34
2023-01-20T14:29:53.374Z,2.28
2023-01-20T14:32:25.374Z,2.25
2023-01-20T14:34:54.080Z,2.22
2023-01-20T14:37:25.524Z,2.18
2023-01-20T14:39:55.780Z,2.14
2023-01-20T14:42:24.711Z,2.12
2023-01-20T14:44:54.879Z,2.09
2023-01-20T14:47:23.644Z,2.05
2023-01-20T14:49:53.474Z,2.01
2023-01-20T14:52:30.644Z,2.00
2023-01-20T14:54:59.031Z,1.98
2023-01-20T14:57:31.585Z,1.96
2023-01-20T15:00:05.397Z,1.96
2023-01-20T15:02:35.086Z,1.94
2023-01-20T15:05:19.334Z,1.93
2023-01-20T15:07:47.927Z,1.92
2023-01-20T15:10:17.953Z,1.92
2023-01-20T15:12:49.348Z,1.89
2023-01-20T15:15:23.981Z,1.88
2023-01-20T15:18:06.801Z,1.89
2023-01-20T15:20:36.395Z,1.86
2023-01-20T15:23:14.600Z,1.85
2023-01-20T15:25:43.837Z,1.83
2023-01-20T15:28:29.987Z,1.83
2023-01-20T15:31:01.236Z,1.82
2023-01-20T15:33:30.730Z,1.84
2023-01-20T15:36:00.663Z,1.83
2023-01-20T15:38:33.167Z,1.81
2023-01-20T15:41:01.971Z,1.80
2023-01-20T15:43:32.152Z,1.79
2023-01-20T15:46:01.564Z,1.80
2023-01-20T15:48:31.163Z,1.76
2023-01-20T15:51:00.658Z,1.77
2023-01-20T15:53:30.004Z,1.79
2023-01-20T15:56:00.728Z,1.82
2023-01-20T15:58:31.993Z,1.83
2023-01-20T16:01:01.229Z,1.79
2023-01-20T16:03:29.854Z,1.80
2023-01-20T16:05:59.334Z,1.80
2023-01-20T16:08:35.776Z,1.80
2023-01-20T16:11:06.381Z,1.82
2023-01-20T16:13:37.388Z,1.81
2023-01-20T16:16:07.231Z,1.81
2023-01-20T16:18:45.632Z,1.80
2023-01-20T16:21:16.084Z,1.80
2023-01-20T16:23:48.323Z,1.80
2023-01-20T16:26:47.438Z,1.82
2023-01-20T16:29:16.055Z,1.79
2023-01-20T16:31:47.131Z,1.79
2023-01-20T16:34:19.445Z,1.79
2023-01-20T16:36:51.470Z,1.77
2023-01-20T16:39:25.595Z,1.73
2023-01-20T16:41:55.944Z,1.71
2023-01-20T16:44:25.398Z,1.76
2023-01-20T16:46:54.267Z,1.77
2023-01-20T16:49:24.022Z,1.79
2023-01-20T16:51:55.141Z,1.81
2023-01-20T16:54:25.262Z,1.81
2023-01-20T16:57:00.954Z,1.82
2023-01-20T16:59:30.823Z,1.83
2023-01-20T17:02:02.858Z,1.85
2023-01-20T17:04:34.455Z,1.83
2023-01-20T17:07:08.068Z,1.83
2023-01-20T17:09:37.711Z,1.83
2023-01-20T17:12:08.357Z,1.81
2023-01-20T17:14:38.226Z,1.79
2023-01-20T17:17:12.108Z,1.81
2023-01-20T17:19:42.325Z,1.84
2023-01-20T17:22:14.775Z,1.89
2023-01-20T17:24:45.304Z,1.91
2023-01-20T17:27:14.947Z,1.88
2023-01-20T17:29:46.386Z,1.85
2023-01-20T17:32:17.079Z,1.88
2023-01-20T17:34:53.172Z,1.89
2023-01-20T17:37:25.316Z,1.90
2023-01-20T17:39:58.552Z,1.91
2023-01-20T17:42:30.177Z,1.95
2023-01-20T17:45:03.011Z,1.96
2023-01-20T17:47:34.267Z,1.95
2023-01-20T17:50:09.019Z,1.91
2023-01-20T17:52:40.729Z,1.93
2023-01-20T17:55:14.984Z,1.96
2023-01-20T17:57:44.643Z,1.99
2023-01-20T18:00:15.132Z,2.02
2023-01-20T18:02:45.437Z,2.03
2023-01-20T18:05:14.643Z,2.03
2023-01-20T18:07:44.255Z,2.05
2023-01-20T18:10:19.551Z,2.04
2023-01-20T18:12:48.637Z,2.00
2023-01-20T18:15:19.095Z,1.96
2023-01-20T18:17:51.431Z,1.94
2023-01-20T18:20:21.149Z,1.90
2023-01-20T18:22:58.777Z,1.88
2023-01-20T18:25:32.291Z,1.86
2023-01-20T18:28:05.034Z,1.84
2023-01-20T18:30:40.588Z,1.81
2023-01-20T18:33:13.057Z,1.78
2023-01-20T18:35:45.411Z,1.75
2023-01-20T18:38:16.876Z,1.72
2023-01-20T18:40:45.961Z,1.70
2023-01-20T18:43:17.247Z,1.69
2023-01-20T18:45:45.873Z,1.67
2023-01-20T18:48:15.578Z,1.64
2023-01-20T18:50:45.884Z,1.62
2023-01-20T18:53:16.218Z,1.62
2023-01-20T18:55:49.835Z,1.62
2023-01-20T18:58:18.102Z,1.61
2023-01-20T19:00:48.399Z,1.60
2023-01-20T19:03:17.292Z,1.59
2023-01-20T19:05:49.065Z,1.58
2023-01-20T19:08:21.840Z,1.57
2023-01-20T19:10:55.838Z,1.55
2023-01-20T19:13:26.083Z,1.53
2023-01-20T19:15:59.028Z,1.51
2023-01-20T19:18:27.770Z,1.54
2023-01-20T19:20:57.639Z,1.52
2023-01-20T19:23:28.860Z,1.50
2023-01-20T19:26:09.582Z,1.50
2023-01-20T19:28:39.006Z,1.47
2023-01-20T19:31:12.364Z,1.46
2023-01-20T19:33:42.901Z,1.44
2023-01-20T19:36:13.975Z,1.39
2023-01-20T19:38:43.771Z,1.38
2023-01-20T19:41:16.959Z,1.35
2023-01-20T19:43:45.501Z,1.35
2023-01-20T19:46:23.311Z,1.30
2023-01-20T19:48:52.930Z,1.27
2023-01-20T19:51:23.000Z,1.26
2023-01-20T19:53:56.889Z,1.24
2023-01-20T19:56:28.493Z,1.18
2023-01-20T19:58:58.769Z,1.16
2023-01-20T20:01:31.672Z,1.15
2023-01-20T20:04:08.531Z,1.14
2023-01-20T20:06:39.576Z,1.12
2023-01-20T20:09:11.467Z,1.12
2023-01-20T20:11:39.942Z,1.12
2023-01-20T20:14:09.280Z,1.10
2023-01-20T20:16:37.961Z,1.07
2023-01-20T20:19:07.781Z,1.01
2023-01-20T20:21:36.892Z,1.01
2023-01-20T20:24:06.679Z,1.00
2023-01-20T20:26:38.231Z,1.03
2023-01-20T20:29:07.531Z,1.02
2023-01-20T20:31:38.132Z,1.02
2023-01-20T20:34:07.952Z,1.02
2023-01-20T20:36:36.642Z,1.01
2023-01-20T20:39:05.552Z,1.01
2023-01-20T20:41:35.739Z,1.00
2023-01-20T20:44:03.803Z,0.98
2023-01-20T20:46:31.892Z,0.96
2023-01-20T20:49:01.949Z,0.93
2023-01-20T20:51:32.310Z,0.86
2023-01-20T20:54:01.883Z,0.81
2023-01-20T20:56:33.402Z,0.78
2023-01-20T20:59:03.389Z,0.74
2023-01-20T21:01:33.547Z,0.73
2023-01-20T21:04:03.609Z,0.76
2023-01-20T21:06:31.618Z,0.75
2023-01-20T21:09:00.138Z,0.74
2023-01-20T21:11:28.407Z,0.74
2023-01-20T21:13:56.312Z,0.75
2023-01-20T21:16:25.043Z,0.78
2023-01-20T21:18:54.151Z,0.80
2023-01-20T21:21:22.571Z,0.79
2023-01-20T21:23:52.111Z,0.79
2023-01-20T21:26:20.345Z,0.79
2023-01-20T21:28:49.711Z,0.78
2023-01-20T21:31:21.475Z,0.76
2023-01-20T21:33:58.679Z,0.72
2023-01-20T21:36:27.228Z,0.69
2023-01-20T21:38:55.740Z,0.67
2023-01-20T21:41:23.978Z,0.66
2023-01-20T21:44:10.267Z,0.65
2023-01-20T21:46:39.756Z,0.64
2023-01-20T21:49:27.203Z,0.64
2023-01-20T21:52:14.444Z,0.65
2023-01-20T21:54:42.475Z,0.63
2023-01-20T21:57:10.868Z,0.61
2023-01-20T21:59:38.714Z,0.58
2023-01-20T22:02:07.048Z,0.57
2023-01-20T22:04:35.110Z,0.56
2023-01-20T22:07:02.847Z,0.55
2023-01-20T22:09:30.743Z,0.56
2023-01-20T22:11:58.756Z,0.55
2023-01-20T22:14:26.854Z,0.53
2023-01-20T22:16:55.140Z,0.53
2023-01-20T22:19:23.143Z,0.54
2023-01-20T22:21:51.478Z,0.57
2023-01-20T22:24:19.247Z,0.57
2023-01-20T22:26:50.650Z,0.55
2023-01-20T22:29:18.648Z,0.56
2023-01-20T22:31:47.049Z,0.54
2023-01-20T22:34:15.041Z,0.56
2023-01-20T22:36:43.056Z,0.56
2023-01-20T22:39:11.240Z,0.55
2023-01-20T22:41:39.061Z,0.53
2023-01-20T22:44:06.932Z,0.51
2023-01-20T22:46:34.848Z,0.45
2023-01-20T22:49:02.787Z,0.44
2023-01-20T22:51:30.825Z,0.43
2023-01-20T22:54:00.981Z,0.43
2023-01-20T22:56:30.618Z,0.42
2023-01-20T22:58:59.271Z,0.44
2023-01-20T23:01:32.345Z,0.46
2023-01-20T23:04:00.935Z,0.44
2023-01-20T23:06:31.126Z,0.47
2023-01-20T23:09:00.124Z,0.47
2023-01-20T23:11:27.818Z,0.51
2023-01-20T23:13:55.744Z,0.52
2023-01-20T23:16:23.911Z,0.50
2023-01-20T23:18:51.819Z,0.48
2023-01-20T23:21:20.675Z,0.44
2023-01-20T23:23:55.056Z,0.41
2023-01-20T23:26:25.274Z,0.41
2023-01-20T23:28:54.131Z,0.41
2023-01-20T23:31:22.542Z,0.41
2023-01-20T23:33:50.828Z,0.40
2023-01-20T23:36:23.854Z,0.40
2023-01-20T23:38:53.183Z,0.41
2023-01-20T23:41:20.968Z,0.41
2023-01-20T23:43:49.235Z,0.42
2023-01-20T23:46:17.189Z,0.43
2023-01-20T23:48:48.380Z,0.45
2023-01-20T23:51:16.925Z,0.46
2023-01-20T23:53:45.069Z,0.45
2023-01-20T23:56:24.499Z,0.43
2023-01-20T23:58:52.471Z,0.41
